Time;durP1;ratioP1;P1;durP2;ratioP2;P2;SDS_P1;SDS_P2;PMS_P1;PMS_P2;Temp;Humidity;BMP_temperature;BMP_pressure;BME280_temperature;BME280_humidity;BME280_pressure;Samples;Min_cycle;Max_cycle;Signal;HPM_P1;HPM_P2
2023/03/10 00:05:25;;;;;;;14.83;8.37;;;0.10;99.90;;;;;;4732510;29;20202;-83
2023/03/10 00:35:46;;;;;;;12.90;8.17;;;0.10;99.90;;;;;;4740252;29;20209;-79
2023/03/10 01:06:01;;;;;;;15.10;9.43;;;0.10;99.90;;;;;;4649800;29;20212;-79
2023/03/10 01:46:43;;;;;;;21.70;12.00;;;0.10;99.90;;;;;;4616342;29;20896;-79
2023/03/10 02:12:00;;;;;;;23.10;14.60;;;0.20;99.90;;;;;;4617371;30;20363;-81
2023/03/10 02:41:54;;;;;;;23.70;13.63;;;0.10;99.90;;;;;;4595302;29;20670;-78
2023/03/10 03:02:52;;;;;;;21.10;11.47;;;0.20;99.90;;;;;;4685456;29;20534;-80
2023/03/10 04:13:25;;;;;;;27.10;16.37;;;0.30;99.90;;;;;;4693389;29;20796;-80
2023/03/10 04:39:15;;;;;;;28.27;16.50;;;0.40;99.90;;;;;;4765890;29;20299;-80
2023/03/10 04:59:16;;;;;;;31.07;17.03;;;0.60;99.90;;;;;;4691341;29;20659;-81
2023/03/10 05:19:29;;;;;;;32.77;18.77;;;0.70;99.90;;;;;;4648591;29;20819;-79
2023/03/10 05:49:35;;;;;;;36.93;20.07;;;1.00;99.90;;;;;;4730368;28;20427;-80
2023/03/10 06:10:33;;;;;;;41.33;24.03;;;1.20;99.90;;;;;;4838445;28;20196;-82
2023/03/10 06:14:54;;;;;;;44.60;26.90;;;1.20;99.90;;;;;;4802972;28;21118;-81
2023/03/10 06:45:19;;;;;;;50.07;28.60;;;1.60;99.90;;;;;;4818581;28;20650;-81
2023/03/10 07:05:39;;;;;;;49.57;28.30;;;1.90;99.90;;;;;;4698499;29;20517;-81
2023/03/10 07:36:41;;;;;;;50.17;28.30;;;2.60;99.90;;;;;;4847062;28;20435;-81
2023/03/10 08:07:01;;;;;;;50.83;28.70;;;3.10;99.90;;;;;;4779085;29;20209;-80
2023/03/10 08:37:24;;;;;;;48.33;27.77;;;3.50;99.90;;;;;;4771162;29;20538;-81
2023/03/10 09:08:06;;;;;;;48.83;27.67;;;4.00;99.90;;;;;;4728603;29;20228;-80
2023/03/10 09:12:26;;;;;;;47.63;26.87;;;4.30;99.90;;;;;;4697341;29;20583;-80
2023/03/10 09:43:37;;;;;;;48.30;26.83;;;4.90;99.90;;;;;;4730042;29;20590;-83
2023/03/10 09:48:04;;;;;;;46.67;25.83;;;4.90;99.90;;;;;;4683417;29;20849;-80
2023/03/10 10:23:41;;;;;;;47.23;26.10;;;5.10;99.90;;;;;;4682247;29;20551;-79
2023/03/10 10:58:57;;;;;;;39.87;24.53;;;6.20;99.90;;;;;;4820049;29;20535;-81
2023/03/10 11:24:52;;;;;;;44.43;24.33;;;7.30;99.90;;;;;;4685639;29;20637;-79
2023/03/10 11:50:06;;;;;;;32.13;19.33;;;9.10;99.90;;;;;;4652549;29;21188;-81
2023/03/10 12:10:03;;;;;;;27.13;17.07;;;9.80;99.90;;;;;;4610635;30;20336;-82
2023/03/10 12:35:52;;;;;;;16.40;12.00;;;10.70;99.90;;;;;;4664002;29;20683;-81
2023/03/10 13:01:01;;;;;;;12.13;8.30;;;11.90;94.90;;;;;;4651837;29;20613;-81
2023/03/10 13:31:19;;;;;;;8.67;6.73;;;12.80;90.70;;;;;;4532751;30;20604;-79
2023/03/10 14:01:37;;;;;;;7.73;5.07;;;12.80;90.30;;;;;;4543866;30;21162;-79
2023/03/10 14:32:40;;;;;;;5.63;4.57;;;13.00;89.10;;;;;;4622946;29;20211;-77
2023/03/10 15:03:00;;;;;;;8.87;5.33;;;13.10;89.40;;;;;;4814133;28;20257;-80
2023/03/10 15:32:53;;;;;;;6.93;4.83;;;12.40;90.20;;;;;;4783086;28;20372;-80
2023/03/10 15:58:56;;;;;;;6.03;4.23;;;11.80;90.60;;;;;;4743569;29;20221;-81
2023/03/10 16:39:24;;;;;;;7.53;4.43;;;10.80;93.10;;;;;;4856955;28;20296;-80
2023/03/10 17:04:45;;;;;;;9.77;5.23;;;9.60;98.60;;;;;;4864424;28;20218;-78
2023/03/10 17:45:19;;;;;;;10.67;6.30;;;8.20;99.90;;;;;;4882794;28;20257;-82
2023/03/10 18:10:17;;;;;;;10.50;5.77;;;7.10;99.90;;;;;;4720680;28;20692;-80
2023/03/10 18:35:53;;;;;;;12.90;8.87;;;6.50;99.90;;;;;;4709880;29;20619;-81
2023/03/10 19:06:15;;;;;;;27.93;16.53;;;6.00;99.90;;;;;;4834184;28;20221;-82
2023/03/10 19:36:51;;;;;;;22.50;16.17;;;5.40;99.90;;;;;;4857194;28;20275;-80
2023/03/10 20:12:17;;;;;;;43.97;31.77;;;5.60;99.90;;;;;;4870868;28;20265;-79
2023/03/10 20:37:05;;;;;;;37.30;27.67;;;5.90;99.90;;;;;;4606492;29;20851;-79
2023/03/10 20:57:49;;;;;;;52.10;35.23;;;5.80;99.90;;;;;;4609648;29;20242;-79
2023/03/10 21:23:01;;;;;;;63.03;41.40;;;5.60;99.90;;;;;;4628211;29;20760;-81
2023/03/10 21:43:33;;;;;;;59.50;38.73;;;5.70;99.90;;;;;;4574419;30;20666;-79
2023/03/10 22:24:11;;;;;;;74.00;47.17;;;5.60;99.90;;;;;;4808289;28;20237;-79
2023/03/10 23:35:14;;;;;;;36.03;25.50;;;6.10;99.90;;;;;;4767301;28;20909;-79
2023/03/10 23:59:55;;;;;;;31.37;21.60;;;7.70;99.90;;;;;;4560286;29;20721;-79
